sensor_id;sensor_type;location;lat;lon;timestamp;pressure;altitude;pressure_sealevel;temperature;humidity
55517;BME280;41724;51.176;-0.708;2022-09-09T00:01:46;99775.56;;;20.50;61.65
55517;BME280;41724;51.176;-0.708;2022-09-09T00:04:26;99778.19;;;20.19;62.16
55517;BME280;41724;51.176;-0.708;2022-09-09T00:07:01;99776.58;;;19.98;63.38
55517;BME280;41724;51.176;-0.708;2022-09-09T00:09:32;99775.93;;;19.68;63.53
55517;BME280;41724;51.176;-0.708;2022-09-09T00:12:06;99774.44;;;20.03;63.92
55517;BME280;41724;51.176;-0.708;2022-09-09T00:14:45;99774.03;;;20.35;63.20
55517;BME280;41724;51.176;-0.708;2022-09-09T00:17:23;99771.82;;;20.36;62.18
55517;BME280;41724;51.176;-0.708;2022-09-09T00:19:58;99771.29;;;19.99;63.42
55517;BME280;41724;51.176;-0.708;2022-09-09T00:22:30;99767.61;;;20.31;62.71
55517;BME280;41724;51.176;-0.708;2022-09-09T00:25:03;99766.95;;;20.20;63.55
55517;BME280;41724;51.176;-0.708;2022-09-09T00:27:40;99767.96;;;20.08;63.86
55517;BME280;41724;51.176;-0.708;2022-09-09T00:30:16;99777.18;;;18.81;66.87
55517;BME280;41724;51.176;-0.708;2022-09-09T00:32:44;99781.31;;;18.81;66.95
55517;BME280;41724;51.176;-0.708;2022-09-09T00:35:17;99775.70;;;19.51;66.58
55517;BME280;41724;51.176;-0.708;2022-09-09T00:37:46;99774.73;;;19.32;66.15
55517;BME280;41724;51.176;-0.708;2022-09-09T00:40:24;99774.46;;;19.66;65.76
55517;BME280;41724;51.176;-0.708;2022-09-09T00:43:04;99775.98;;;20.24;64.14
55517;BME280;41724;51.176;-0.708;2022-09-09T00:46:01;99775.82;;;20.06;63.31
55517;BME280;41724;51.176;-0.708;2022-09-09T00:48:37;99779.01;;;20.25;63.39
55517;BME280;41724;51.176;-0.708;2022-09-09T00:51:12;99778.80;;;20.34;63.00
55517;BME280;41724;51.176;-0.708;2022-09-09T00:54:10;99779.79;;;20.17;63.13
55517;BME280;41724;51.176;-0.708;2022-09-09T00:56:52;99781.58;;;20.25;63.18
55517;BME280;41724;51.176;-0.708;2022-09-09T00:59:32;99779.43;;;20.24;63.45
55517;BME280;41724;51.176;-0.708;2022-09-09T01:02:04;99780.65;;;20.61;62.84
55517;BME280;41724;51.176;-0.708;2022-09-09T01:04:36;99777.98;;;20.74;62.00
55517;BME280;41724;51.176;-0.708;2022-09-09T01:07:12;99772.88;;;20.72;62.12
55517;BME280;41724;51.176;-0.708;2022-09-09T01:09:51;99767.90;;;20.73;62.17
55517;BME280;41724;51.176;-0.708;2022-09-09T01:12:25;99765.22;;;20.81;61.55
55517;BME280;41724;51.176;-0.708;2022-09-09T01:15:00;99762.53;;;20.93;61.30
55517;BME280;41724;51.176;-0.708;2022-09-09T01:17:34;99762.41;;;20.84;61.54
55517;BME280;41724;51.176;-0.708;2022-09-09T01:20:08;99767.33;;;20.67;61.87
55517;BME280;41724;51.176;-0.708;2022-09-09T01:22:47;99765.91;;;20.44;62.34
55517;BME280;41724;51.176;-0.708;2022-09-09T01:25:29;99766.99;;;19.60;63.90
55517;BME280;41724;51.176;-0.708;2022-09-09T01:28:01;99772.07;;;19.25;66.64
55517;BME280;41724;51.176;-0.708;2022-09-09T01:30:30;99775.45;;;19.06;66.84
55517;BME280;41724;51.176;-0.708;2022-09-09T01:33:04;99778.12;;;19.15;67.02
55517;BME280;41724;51.176;-0.708;2022-09-09T01:35:46;99777.89;;;19.64;66.90
55517;BME280;41724;51.176;-0.708;2022-09-09T01:38:15;99780.83;;;19.59;67.12
55517;BME280;41724;51.176;-0.708;2022-09-09T01:40:42;99780.47;;;19.37;67.27
55517;BME280;41724;51.176;-0.708;2022-09-09T01:43:09;99778.66;;;19.68;67.26
55517;BME280;41724;51.176;-0.708;2022-09-09T01:45:36;99777.39;;;19.74;65.97
55517;BME280;41724;51.176;-0.708;2022-09-09T01:48:05;99779.26;;;19.96;65.95
55517;BME280;41724;51.176;-0.708;2022-09-09T01:50:32;99777.35;;;19.69;66.52
55517;BME280;41724;51.176;-0.708;2022-09-09T01:53:01;99780.41;;;19.30;66.75
55517;BME280;41724;51.176;-0.708;2022-09-09T01:55:31;99775.12;;;19.87;66.28
55517;BME280;41724;51.176;-0.708;2022-09-09T01:58:14;99776.53;;;19.79;65.75
55517;BME280;41724;51.176;-0.708;2022-09-09T02:00:50;99778.25;;;19.90;64.16
55517;BME280;41724;51.176;-0.708;2022-09-09T02:03:26;99780.27;;;19.83;64.54
55517;BME280;41724;51.176;-0.708;2022-09-09T02:06:00;99777.94;;;19.86;63.86
55517;BME280;41724;51.176;-0.708;2022-09-09T02:08:39;99783.51;;;19.76;64.09
55517;BME280;41724;51.176;-0.708;2022-09-09T02:11:11;99787.07;;;19.74;64.50
55517;BME280;41724;51.176;-0.708;2022-09-09T02:13:40;99785.20;;;19.95;63.69
55517;BME280;41724;51.176;-0.708;2022-09-09T02:16:14;99789.06;;;20.09;64.01
55517;BME280;41724;51.176;-0.708;2022-09-09T02:18:47;99788.87;;;20.11;63.37
55517;BME280;41724;51.176;-0.708;2022-09-09T02:21:15;99786.08;;;20.15;63.69
55517;BME280;41724;51.176;-0.708;2022-09-09T02:23:44;99784.52;;;19.92;64.03
55517;BME280;41724;51.176;-0.708;2022-09-09T02:26:14;99788.39;;;19.95;63.17
55517;BME280;41724;51.176;-0.708;2022-09-09T02:28:43;99789.66;;;19.88;63.66
55517;BME280;41724;51.176;-0.708;2022-09-09T02:31:10;99790.82;;;20.10;63.93
55517;BME280;41724;51.176;-0.708;2022-09-09T02:33:41;99792.04;;;19.91;64.35
55517;BME280;41724;51.176;-0.708;2022-09-09T02:36:10;99792.07;;;20.06;63.05
55517;BME280;41724;51.176;-0.708;2022-09-09T02:38:42;99788.80;;;20.35;64.46
55517;BME280;41724;51.176;-0.708;2022-09-09T02:41:12;99787.12;;;19.95;63.66
55517;BME280;41724;51.176;-0.708;2022-09-09T02:43:40;99786.33;;;20.21;63.45
55517;BME280;41724;51.176;-0.708;2022-09-09T02:46:21;99788.87;;;20.38;62.63
55517;BME280;41724;51.176;-0.708;2022-09-09T02:48:58;99793.15;;;20.13;62.88
55517;BME280;41724;51.176;-0.708;2022-09-09T02:51:34;99796.81;;;19.60;63.78
55517;BME280;41724;51.176;-0.708;2022-09-09T02:54:10;99801.02;;;19.27;64.43
55517;BME280;41724;51.176;-0.708;2022-09-09T02:56:42;99799.00;;;19.31;64.57
55517;BME280;41724;51.176;-0.708;2022-09-09T02:59:11;99801.51;;;19.48;64.92
55517;BME280;41724;51.176;-0.708;2022-09-09T03:01:39;99801.82;;;19.49;65.03
55517;BME280;41724;51.176;-0.708;2022-09-09T03:04:06;99800.64;;;19.95;64.22
55517;BME280;41724;51.176;-0.708;2022-09-09T03:06:33;99805.50;;;19.44;65.04
55517;BME280;41724;51.176;-0.708;2022-09-09T03:09:00;99802.82;;;19.23;65.27
55517;BME280;41724;51.176;-0.708;2022-09-09T03:11:28;99806.44;;;19.42;64.95
55517;BME280;41724;51.176;-0.708;2022-09-09T03:13:55;99813.87;;;19.40;66.11
55517;BME280;41724;51.176;-0.708;2022-09-09T03:16:22;99826.81;;;18.40;68.25
55517;BME280;41724;51.176;-0.708;2022-09-09T03:18:49;99828.48;;;18.87;67.12
55517;BME280;41724;51.176;-0.708;2022-09-09T03:21:16;99830.60;;;18.86;67.50
55517;BME280;41724;51.176;-0.708;2022-09-09T03:23:44;99834.44;;;19.00;66.40
55517;BME280;41724;51.176;-0.708;2022-09-09T03:26:11;99836.01;;;18.88;67.50
55517;BME280;41724;51.176;-0.708;2022-09-09T03:28:38;99832.55;;;18.89;66.58
55517;BME280;41724;51.176;-0.708;2022-09-09T03:31:06;99836.36;;;18.76;67.79
55517;BME280;41724;51.176;-0.708;2022-09-09T03:33:33;99833.03;;;19.45;65.75
55517;BME280;41724;51.176;-0.708;2022-09-09T03:36:00;99838.87;;;18.81;66.56
55517;BME280;41724;51.176;-0.708;2022-09-09T03:38:27;99840.57;;;18.92;66.77
55517;BME280;41724;51.176;-0.708;2022-09-09T03:40:56;99846.69;;;18.89;66.50
55517;BME280;41724;51.176;-0.708;2022-09-09T03:43:24;99849.27;;;19.02;67.88
55517;BME280;41724;51.176;-0.708;2022-09-09T03:45:53;99852.60;;;19.10;66.88
55517;BME280;41724;51.176;-0.708;2022-09-09T03:48:20;99855.76;;;19.61;65.72
55517;BME280;41724;51.176;-0.708;2022-09-09T03:50:49;99857.55;;;19.57;65.05
55517;BME280;41724;51.176;-0.708;2022-09-09T03:53:18;99859.55;;;19.64;66.05
55517;BME280;41724;51.176;-0.708;2022-09-09T03:55:49;99860.48;;;19.43;66.33
55517;BME280;41724;51.176;-0.708;2022-09-09T03:58:17;99864.17;;;19.07;66.44
55517;BME280;41724;51.176;-0.708;2022-09-09T04:00:52;99865.26;;;19.68;64.17
55517;BME280;41724;51.176;-0.708;2022-09-09T04:03:20;99868.55;;;19.66;64.39
55517;BME280;41724;51.176;-0.708;2022-09-09T04:05:48;99869.97;;;19.72;63.14
55517;BME280;41724;51.176;-0.708;2022-09-09T04:08:15;99873.42;;;19.92;63.68
55517;BME280;41724;51.176;-0.708;2022-09-09T04:10:44;99876.96;;;19.56;63.31
55517;BME280;41724;51.176;-0.708;2022-09-09T04:13:11;99877.85;;;19.67;64.19
55517;BME280;41724;51.176;-0.708;2022-09-09T04:15:39;99875.20;;;19.72;64.44
55517;BME280;41724;51.176;-0.708;2022-09-09T04:18:06;99873.98;;;19.51;64.09
55517;BME280;41724;51.176;-0.708;2022-09-09T04:20:33;99880.58;;;19.83;63.77
55517;BME280;41724;51.176;-0.708;2022-09-09T04:23:00;99876.06;;;19.75;63.83
55517;BME280;41724;51.176;-0.708;2022-09-09T04:25:28;99883.03;;;19.64;63.32
55517;BME280;41724;51.176;-0.708;2022-09-09T04:27:55;99884.17;;;19.67;64.43
55517;BME280;41724;51.176;-0.708;2022-09-09T04:30:22;99883.54;;;19.60;63.79
55517;BME280;41724;51.176;-0.708;2022-09-09T04:32:49;99881.87;;;19.75;64.13
55517;BME280;41724;51.176;-0.708;2022-09-09T04:35:16;99885.75;;;20.20;62.98
55517;BME280;41724;51.176;-0.708;2022-09-09T04:37:43;99886.56;;;20.01;62.84
55517;BME280;41724;51.176;-0.708;2022-09-09T04:40:11;99889.21;;;20.30;61.91
55517;BME280;41724;51.176;-0.708;2022-09-09T04:42:38;99892.06;;;20.12;62.41
55517;BME280;41724;51.176;-0.708;2022-09-09T04:45:06;99897.55;;;20.21;62.41
55517;BME280;41724;51.176;-0.708;2022-09-09T04:47:33;99898.73;;;20.36;61.90
55517;BME280;41724;51.176;-0.708;2022-09-09T04:50:00;99901.23;;;20.12;62.64
55517;BME280;41724;51.176;-0.708;2022-09-09T04:52:28;99898.16;;;20.07;61.86
55517;BME280;41724;51.176;-0.708;2022-09-09T04:54:55;99898.21;;;19.88;63.12
55517;BME280;41724;51.176;-0.708;2022-09-09T04:57:22;99903.27;;;20.16;63.54
55517;BME280;41724;51.176;-0.708;2022-09-09T04:59:49;99904.72;;;20.04;62.83
55517;BME280;41724;51.176;-0.708;2022-09-09T05:02:16;99904.79;;;19.69;63.49
55517;BME280;41724;51.176;-0.708;2022-09-09T05:04:43;99906.48;;;19.90;62.58
55517;BME280;41724;51.176;-0.708;2022-09-09T05:07:11;99905.90;;;19.97;62.37
55517;BME280;41724;51.176;-0.708;2022-09-09T05:09:38;99912.78;;;19.87;62.52
55517;BME280;41724;51.176;-0.708;2022-09-09T05:12:06;99914.97;;;20.48;62.02
55517;BME280;41724;51.176;-0.708;2022-09-09T05:14:33;99917.78;;;20.07;61.38
55517;BME280;41724;51.176;-0.708;2022-09-09T05:17:01;99915.28;;;19.82;61.99
55517;BME280;41724;51.176;-0.708;2022-09-09T05:19:28;99917.28;;;19.82;61.97
55517;BME280;41724;51.176;-0.708;2022-09-09T05:21:55;99922.59;;;19.92;63.08
55517;BME280;41724;51.176;-0.708;2022-09-09T05:24:22;99920.91;;;20.15;61.90
55517;BME280;41724;51.176;-0.708;2022-09-09T05:26:50;99921.53;;;20.05;62.14
55517;BME280;41724;51.176;-0.708;2022-09-09T05:29:17;99926.55;;;20.14;62.16
55517;BME280;41724;51.176;-0.708;2022-09-09T05:31:44;99931.91;;;20.13;62.06
55517;BME280;41724;51.176;-0.708;2022-09-09T05:34:11;99933.94;;;19.77;62.29
55517;BME280;41724;51.176;-0.708;2022-09-09T05:36:39;99936.17;;;20.15;62.94
55517;BME280;41724;51.176;-0.708;2022-09-09T05:39:06;99935.29;;;19.74;62.58
55517;BME280;41724;51.176;-0.708;2022-09-09T05:41:33;99937.96;;;19.75;63.61
55517;BME280;41724;51.176;-0.708;2022-09-09T05:44:01;99940.66;;;19.67;63.09
55517;BME280;41724;51.176;-0.708;2022-09-09T05:46:28;99942.61;;;20.10;62.88
55517;BME280;41724;51.176;-0.708;2022-09-09T05:48:55;99941.82;;;19.81;62.47
55517;BME280;41724;51.176;-0.708;2022-09-09T05:51:24;99944.82;;;20.21;62.90
55517;BME280;41724;51.176;-0.708;2022-09-09T05:53:52;99945.83;;;19.92;62.61
55517;BME280;41724;51.176;-0.708;2022-09-09T05:56:21;99950.42;;;20.08;61.63
55517;BME280;41724;51.176;-0.708;2022-09-09T05:58:49;99951.53;;;20.06;62.74
55517;BME280;41724;51.176;-0.708;2022-09-09T06:01:18;99953.44;;;19.76;62.72
55517;BME280;41724;51.176;-0.708;2022-09-09T06:03:46;99955.33;;;19.95;62.59
55517;BME280;41724;51.176;-0.708;2022-09-09T06:06:15;99958.21;;;20.34;62.05
55517;BME280;41724;51.176;-0.708;2022-09-09T06:08:44;99962.99;;;20.19;61.28
55517;BME280;41724;51.176;-0.708;2022-09-09T06:11:14;99964.46;;;20.21;62.21
55517;BME280;41724;51.176;-0.708;2022-09-09T06:13:41;99965.24;;;20.35;62.16
55517;BME280;41724;51.176;-0.708;2022-09-09T06:16:10;99969.76;;;19.71;62.36
55517;BME280;41724;51.176;-0.708;2022-09-09T06:18:37;99967.28;;;20.05;62.27
55517;BME280;41724;51.176;-0.708;2022-09-09T06:21:06;99967.59;;;19.77;62.16
55517;BME280;41724;51.176;-0.708;2022-09-09T06:23:34;99967.41;;;19.69;63.03
55517;BME280;41724;51.176;-0.708;2022-09-09T06:26:03;99971.97;;;19.73;63.53
55517;BME280;41724;51.176;-0.708;2022-09-09T06:28:31;99977.89;;;19.69;63.20
55517;BME280;41724;51.176;-0.708;2022-09-09T06:30:58;99980.61;;;19.65;63.46
55517;BME280;41724;51.176;-0.708;2022-09-09T06:33:26;99983.49;;;19.18;64.96
55517;BME280;41724;51.176;-0.708;2022-09-09T06:35:53;99985.10;;;19.71;64.57
55517;BME280;41724;51.176;-0.708;2022-09-09T06:38:21;99988.63;;;19.51;63.82
55517;BME280;41724;51.176;-0.708;2022-09-09T06:40:52;99992.88;;;19.61;63.55
55517;BME280;41724;51.176;-0.708;2022-09-09T06:43:19;99992.17;;;19.50;62.75
55517;BME280;41724;51.176;-0.708;2022-09-09T06:45:53;99997.03;;;19.29;63.88
55517;BME280;41724;51.176;-0.708;2022-09-09T06:48:21;99997.03;;;19.74;64.09
55517;BME280;41724;51.176;-0.708;2022-09-09T06:50:47;100005.64;;;19.66;63.96
55517;BME280;41724;51.176;-0.708;2022-09-09T06:53:17;100009.26;;;19.81;62.69
55517;BME280;41724;51.176;-0.708;2022-09-09T06:55:44;100006.32;;;19.73;64.18
55517;BME280;41724;51.176;-0.708;2022-09-09T06:58:11;100014.82;;;19.46;63.48
55517;BME280;41724;51.176;-0.708;2022-09-09T07:00:38;100018.31;;;19.48;61.54
55517;BME280;41724;51.176;-0.708;2022-09-09T07:03:05;100018.16;;;19.69;64.37
55517;BME280;41724;51.176;-0.708;2022-09-09T07:05:32;100023.34;;;19.62;63.64
55517;BME280;41724;51.176;-0.708;2022-09-09T07:08:00;100022.28;;;19.93;63.03
55517;BME280;41724;51.176;-0.708;2022-09-09T07:10:27;100022.81;;;20.13;63.25
55517;BME280;41724;51.176;-0.708;2022-09-09T07:12:54;100018.18;;;20.46;62.39
55517;BME280;41724;51.176;-0.708;2022-09-09T07:15:21;100020.00;;;20.12;62.77
55517;BME280;41724;51.176;-0.708;2022-09-09T07:17:48;100021.60;;;20.43;62.36
55517;BME280;41724;51.176;-0.708;2022-09-09T07:20:15;100028.96;;;20.12;62.01
55517;BME280;41724;51.176;-0.708;2022-09-09T07:22:43;100031.31;;;20.42;61.68
55517;BME280;41724;51.176;-0.708;2022-09-09T07:25:10;100034.24;;;20.93;61.18
55517;BME280;41724;51.176;-0.708;2022-09-09T07:27:37;100040.54;;;19.95;63.63
55517;BME280;41724;51.176;-0.708;2022-09-09T07:30:06;100041.29;;;20.03;63.13
55517;BME280;41724;51.176;-0.708;2022-09-09T07:32:33;100038.56;;;19.91;62.37
55517;BME280;41724;51.176;-0.708;2022-09-09T07:35:00;100045.06;;;19.92;62.81
55517;BME280;41724;51.176;-0.708;2022-09-09T07:37:27;100047.96;;;20.51;62.18
55517;BME280;41724;51.176;-0.708;2022-09-09T07:39:55;100050.61;;;20.20;61.50
55517;BME280;41724;51.176;-0.708;2022-09-09T07:42:22;100054.27;;;20.24;61.88
55517;BME280;41724;51.176;-0.708;2022-09-09T07:44:50;100054.08;;;20.49;61.47
55517;BME280;41724;51.176;-0.708;2022-09-09T07:47:17;100062.18;;;20.47;62.24
55517;BME280;41724;51.176;-0.708;2022-09-09T07:49:44;100063.71;;;20.45;61.68
55517;BME280;41724;51.176;-0.708;2022-09-09T07:52:11;100073.72;;;20.24;61.79
55517;BME280;41724;51.176;-0.708;2022-09-09T07:54:38;100069.14;;;19.91;62.02
55517;BME280;41724;51.176;-0.708;2022-09-09T07:57:06;100071.12;;;20.60;62.03
55517;BME280;41724;51.176;-0.708;2022-09-09T07:59:33;100076.29;;;20.87;60.99
55517;BME280;41724;51.176;-0.708;2022-09-09T08:02:00;100079.87;;;20.68;60.40
55517;BME280;41724;51.176;-0.708;2022-09-09T08:04:27;100082.30;;;20.80;61.02
55517;BME280;41724;51.176;-0.708;2022-09-09T08:06:57;100084.59;;;20.68;61.93
55517;BME280;41724;51.176;-0.708;2022-09-09T08:09:25;100085.19;;;20.66;59.91
55517;BME280;41724;51.176;-0.708;2022-09-09T08:11:53;100088.96;;;20.94;60.55
55517;BME280;41724;51.176;-0.708;2022-09-09T08:14:20;100090.70;;;20.79;60.16
55517;BME280;41724;51.176;-0.708;2022-09-09T08:16:49;100095.41;;;19.93;62.56
55517;BME280;41724;51.176;-0.708;2022-09-09T08:19:17;100098.73;;;20.18;62.49
55517;BME280;41724;51.176;-0.708;2022-09-09T08:21:44;100099.31;;;20.21;63.34
55517;BME280;41724;51.176;-0.708;2022-09-09T08:24:12;100105.78;;;20.55;61.08
55517;BME280;41724;51.176;-0.708;2022-09-09T08:26:41;100106.07;;;19.99;61.80
55517;BME280;41724;51.176;-0.708;2022-09-09T08:29:11;100110.54;;;20.43;62.77
55517;BME280;41724;51.176;-0.708;2022-09-09T08:31:40;100112.52;;;20.12;61.23
55517;BME280;41724;51.176;-0.708;2022-09-09T08:34:08;100117.40;;;20.76;60.85
55517;BME280;41724;51.176;-0.708;2022-09-09T08:36:37;100117.72;;;20.93;60.46
55517;BME280;41724;51.176;-0.708;2022-09-09T08:39:06;100122.48;;;20.84;60.31
55517;BME280;41724;51.176;-0.708;2022-09-09T08:41:42;100123.19;;;20.45;61.23
55517;BME280;41724;51.176;-0.708;2022-09-09T08:44:20;100129.12;;;19.77;61.96
55517;BME280;41724;51.176;-0.708;2022-09-09T08:46:57;100131.04;;;20.14;62.81
55517;BME280;41724;51.176;-0.708;2022-09-09T08:49:53;100136.91;;;20.44;62.41
55517;BME280;41724;51.176;-0.708;2022-09-09T08:52:28;100142.44;;;20.72;61.83
55517;BME280;41724;51.176;-0.708;2022-09-09T08:54:58;100146.36;;;20.98;60.77
55517;BME280;41724;51.176;-0.708;2022-09-09T08:57:28;100145.02;;;20.67;60.75
55517;BME280;41724;51.176;-0.708;2022-09-09T08:59:55;100146.36;;;21.09;60.12
55517;BME280;41724;51.176;-0.708;2022-09-09T09:02:26;100150.46;;;21.15;59.38
55517;BME280;41724;51.176;-0.708;2022-09-09T09:05:17;100154.79;;;21.22;59.67
55517;BME280;41724;51.176;-0.708;2022-09-09T09:07:58;100158.86;;;21.23;59.28
55517;BME280;41724;51.176;-0.708;2022-09-09T09:10:42;100163.25;;;21.05;59.12
55517;BME280;41724;51.176;-0.708;2022-09-09T09:13:17;100169.72;;;20.74;58.54
55517;BME280;41724;51.176;-0.708;2022-09-09T09:15:48;100175.20;;;20.98;59.81
55517;BME280;41724;51.176;-0.708;2022-09-09T09:18:17;100176.95;;;20.82;59.52
55517;BME280;41724;51.176;-0.708;2022-09-09T09:20:52;100178.60;;;21.21;60.11
55517;BME280;41724;51.176;-0.708;2022-09-09T09:23:23;100180.42;;;21.42;59.19
55517;BME280;41724;51.176;-0.708;2022-09-09T09:25:52;100178.91;;;21.51;59.27
55517;BME280;41724;51.176;-0.708;2022-09-09T09:28:26;100183.97;;;21.77;59.84
55517;BME280;41724;51.176;-0.708;2022-09-09T09:30:56;100188.38;;;21.71;58.39
55517;BME280;41724;51.176;-0.708;2022-09-09T09:33:31;100192.97;;;20.98;58.42
55517;BME280;41724;51.176;-0.708;2022-09-09T09:36:01;100194.30;;;21.37;59.36
55517;BME280;41724;51.176;-0.708;2022-09-09T09:38:29;100201.27;;;20.71;59.71
55517;BME280;41724;51.176;-0.708;2022-09-09T09:40:58;100202.46;;;20.83;60.50
55517;BME280;41724;51.176;-0.708;2022-09-09T09:43:28;100206.02;;;20.50;61.84
55517;BME280;41724;51.176;-0.708;2022-09-09T09:45:55;100208.71;;;20.30;61.29
55517;BME280;41724;51.176;-0.708;2022-09-09T09:48:23;100208.17;;;20.94;61.20
55517;BME280;41724;51.176;-0.708;2022-09-09T09:50:53;100210.53;;;21.20;59.50
55517;BME280;41724;51.176;-0.708;2022-09-09T09:53:24;100212.95;;;20.89;58.98
55517;BME280;41724;51.176;-0.708;2022-09-09T09:55:58;100211.23;;;20.38;62.69
55517;BME280;41724;51.176;-0.708;2022-09-09T09:58:27;100212.95;;;20.92;60.91
55517;BME280;41724;51.176;-0.708;2022-09-09T10:00:56;100212.26;;;21.22;60.25
55517;BME280;41724;51.176;-0.708;2022-09-09T10:03:26;100215.84;;;22.05;57.30
55517;BME280;41724;51.176;-0.708;2022-09-09T10:05:54;100217.25;;;20.75;59.11
55517;BME280;41724;51.176;-0.708;2022-09-09T10:08:25;100220.54;;;21.09;59.18
55517;BME280;41724;51.176;-0.708;2022-09-09T10:11:07;100214.64;;;21.43;58.03
55517;BME280;41724;51.176;-0.708;2022-09-09T10:13:49;100214.05;;;21.63;56.86
55517;BME280;41724;51.176;-0.708;2022-09-09T10:16:29;100215.93;;;21.04;59.55
55517;BME280;41724;51.176;-0.708;2022-09-09T10:19:03;100216.33;;;21.00;61.74
55517;BME280;41724;51.176;-0.708;2022-09-09T10:21:48;100223.19;;;21.34;61.44
55517;BME280;41724;51.176;-0.708;2022-09-09T10:24:38;100222.14;;;21.87;59.92
55517;BME280;41724;51.176;-0.708;2022-09-09T10:27:17;100220.16;;;22.31;56.57
55517;BME280;41724;51.176;-0.708;2022-09-09T10:30:00;100219.78;;;21.45;57.16
55517;BME280;41724;51.176;-0.708;2022-09-09T10:32:35;100221.29;;;21.44;56.79
55517;BME280;41724;51.176;-0.708;2022-09-09T10:35:20;100225.48;;;21.32;58.29
55517;BME280;41724;51.176;-0.708;2022-09-09T10:38:08;100221.23;;;20.50;58.57
55517;BME280;41724;51.176;-0.708;2022-09-09T10:40:41;100226.89;;;20.39;57.80
55517;BME280;41724;51.176;-0.708;2022-09-09T10:43:16;100231.52;;;21.14;56.30
55517;BME280;41724;51.176;-0.708;2022-09-09T10:45:57;100227.67;;;21.60;54.44
55517;BME280;41724;51.176;-0.708;2022-09-09T10:48:31;100231.84;;;20.65;55.16
55517;BME280;41724;51.176;-0.708;2022-09-09T10:51:20;100231.54;;;21.94;54.18
55517;BME280;41724;51.176;-0.708;2022-09-09T10:53:58;100228.70;;;21.14;53.45
55517;BME280;41724;51.176;-0.708;2022-09-09T10:56:33;100235.58;;;21.72;55.91
55517;BME280;41724;51.176;-0.708;2022-09-09T10:59:04;100240.48;;;21.80;54.06
55517;BME280;41724;51.176;-0.708;2022-09-09T11:01:36;100240.62;;;20.66;55.39
55517;BME280;41724;51.176;-0.708;2022-09-09T11:04:12;100236.13;;;20.65;55.49
55517;BME280;41724;51.176;-0.708;2022-09-09T11:06:47;100239.07;;;21.02;57.91
55517;BME280;41724;51.176;-0.708;2022-09-09T11:09:18;100238.23;;;21.07;54.02
55517;BME280;41724;51.176;-0.708;2022-09-09T11:11:52;100242.19;;;21.98;56.26
55517;BME280;41724;51.176;-0.708;2022-09-09T11:14:22;100238.00;;;22.25;54.07
55517;BME280;41724;51.176;-0.708;2022-09-09T11:16:57;100239.88;;;22.14;51.72
55517;BME280;41724;51.176;-0.708;2022-09-09T11:19:28;100248.77;;;22.07;49.63
55517;BME280;41724;51.176;-0.708;2022-09-09T11:21:58;100248.08;;;22.14;51.43
55517;BME280;41724;51.176;-0.708;2022-09-09T11:24:31;100250.68;;;21.81;53.29
55517;BME280;41724;51.176;-0.708;2022-09-09T11:27:03;100253.32;;;22.00;52.61
55517;BME280;41724;51.176;-0.708;2022-09-09T11:29:56;100253.34;;;22.50;49.84
55517;BME280;41724;51.176;-0.708;2022-09-09T11:32:50;100248.48;;;22.38;53.00
55517;BME280;41724;51.176;-0.708;2022-09-09T11:35:31;100249.29;;;22.62;55.65
55517;BME280;41724;51.176;-0.708;2022-09-09T11:38:15;100243.42;;;22.99;51.89
55517;BME280;41724;51.176;-0.708;2022-09-09T11:40:45;100244.78;;;23.45;52.22
55517;BME280;41724;51.176;-0.708;2022-09-09T11:43:14;100249.67;;;21.87;51.22
55517;BME280;41724;51.176;-0.708;2022-09-09T11:45:43;100244.20;;;22.08;53.92
55517;BME280;41724;51.176;-0.708;2022-09-09T11:48:26;100252.16;;;22.30;51.86
55517;BME280;41724;51.176;-0.708;2022-09-09T11:50:59;100260.01;;;21.51;50.29
55517;BME280;41724;51.176;-0.708;2022-09-09T11:53:27;100255.76;;;22.39;50.08
55517;BME280;41724;51.176;-0.708;2022-09-09T11:56:06;100256.93;;;22.79;51.40
55517;BME280;41724;51.176;-0.708;2022-09-09T11:58:38;100252.79;;;22.90;49.67
55517;BME280;41724;51.176;-0.708;2022-09-09T12:01:39;100257.03;;;22.33;48.93
55517;BME280;41724;51.176;-0.708;2022-09-09T12:04:15;100261.23;;;22.37;49.68
55517;BME280;41724;51.176;-0.708;2022-09-09T12:06:45;100257.98;;;22.80;49.67
55517;BME280;41724;51.176;-0.708;2022-09-09T12:09:21;100260.54;;;22.48;49.81
55517;BME280;41724;51.176;-0.708;2022-09-09T12:11:51;100262.58;;;22.33;51.90
55517;BME280;41724;51.176;-0.708;2022-09-09T12:14:21;100269.83;;;21.92;52.80
55517;BME280;41724;51.176;-0.708;2022-09-09T12:16:49;100271.36;;;21.04;52.52
55517;BME280;41724;51.176;-0.708;2022-09-09T12:19:19;100271.93;;;20.92;54.56
55517;BME280;41724;51.176;-0.708;2022-09-09T12:21:53;100271.56;;;21.41;51.42
55517;BME280;41724;51.176;-0.708;2022-09-09T12:24:29;100279.77;;;21.12;52.59
55517;BME280;41724;51.176;-0.708;2022-09-09T12:27:07;100281.07;;;21.67;54.14
55517;BME280;41724;51.176;-0.708;2022-09-09T12:29:44;100280.35;;;20.27;54.45
55517;BME280;41724;51.176;-0.708;2022-09-09T12:32:22;100275.14;;;20.68;57.16
55517;BME280;41724;51.176;-0.708;2022-09-09T12:34:53;100276.51;;;21.23;57.35
55517;BME280;41724;51.176;-0.708;2022-09-09T12:37:27;100284.18;;;20.80;53.89
55517;BME280;41724;51.176;-0.708;2022-09-09T12:39:57;100285.22;;;20.87;54.66
55517;BME280;41724;51.176;-0.708;2022-09-09T12:42:24;100290.80;;;20.04;55.20
55517;BME280;41724;51.176;-0.708;2022-09-09T12:44:55;100290.55;;;20.21;55.77
55517;BME280;41724;51.176;-0.708;2022-09-09T12:47:37;100285.54;;;20.88;54.01
55517;BME280;41724;51.176;-0.708;2022-09-09T12:50:15;100288.20;;;19.95;55.38
55517;BME280;41724;51.176;-0.708;2022-09-09T12:52:44;100288.42;;;19.77;57.63
55517;BME280;41724;51.176;-0.708;2022-09-09T12:55:18;100296.24;;;20.91;56.94
55517;BME280;41724;51.176;-0.708;2022-09-09T12:57:46;100298.31;;;20.98;56.40
55517;BME280;41724;51.176;-0.708;2022-09-09T13:00:16;100298.63;;;20.94;56.62
55517;BME280;41724;51.176;-0.708;2022-09-09T13:02:49;100305.52;;;21.62;55.26
55517;BME280;41724;51.176;-0.708;2022-09-09T13:05:20;100304.07;;;20.92;56.95
55517;BME280;41724;51.176;-0.708;2022-09-09T13:07:48;100307.16;;;21.42;56.06